Time;durP1;ratioP1;P1;durP2;ratioP2;P2;SDS_P1;SDS_P2;PMS_P1;PMS_P2;Temp;Humidity;BMP_temperature;BMP_pressure;BME280_temperature;BME280_humidity;BME280_pressure;Samples;Min_cycle;Max_cycle;Signal;HPM_P1;HPM_P2
2022/10/05 00:00:17;;;;;;;13.93;12.83;;;8.80;99.90;;;;;;5060019;28;20234;-79
2022/10/05 00:02:45;;;;;;;14.40;13.40;;;8.80;99.90;;;;;;5060699;28;20222;-79
2022/10/05 00:05:25;;;;;;;14.53;13.47;;;8.80;99.90;;;;;;5063692;28;20290;-79
2022/10/05 00:07:54;;;;;;;14.03;12.97;;;8.90;99.90;;;;;;5061648;28;20615;-79
2022/10/05 00:10:21;;;;;;;14.43;13.33;;;8.90;99.90;;;;;;5063057;28;20213;-80
2022/10/05 00:12:49;;;;;;;14.50;13.40;;;8.90;99.90;;;;;;5061348;28;20576;-79
2022/10/05 00:15:20;;;;;;;14.00;13.00;;;8.90;99.90;;;;;;5066411;28;20190;-78
2022/10/05 00:17:47;;;;;;;14.13;13.17;;;8.90;99.90;;;;;;5061998;28;20199;-79
2022/10/05 00:20:21;;;;;;;14.10;13.10;;;8.90;99.90;;;;;;5059199;28;20634;-80
2022/10/05 00:22:49;;;;;;;14.43;13.33;;;8.90;99.90;;;;;;5058828;28;20276;-80
2022/10/05 00:25:19;;;;;;;13.97;13.07;;;8.80;99.90;;;;;;5061267;28;20198;-80
2022/10/05 00:27:51;;;;;;;14.40;13.37;;;8.80;99.90;;;;;;5061980;28;20656;-79
2022/10/05 00:30:21;;;;;;;14.47;13.47;;;8.80;99.90;;;;;;5062931;28;20223;-79
2022/10/05 00:32:49;;;;;;;14.27;13.23;;;8.80;99.90;;;;;;5061695;28;20663;-79
2022/10/05 00:35:17;;;;;;;14.37;13.37;;;8.90;99.90;;;;;;5063296;28;20201;-79
2022/10/05 00:37:44;;;;;;;13.87;12.77;;;8.90;99.90;;;;;;5061265;28;20195;-79
2022/10/05 00:40:26;;;;;;;13.43;12.53;;;8.80;99.90;;;;;;5058220;28;20247;-79
2022/10/05 00:43:07;;;;;;;13.40;12.40;;;8.80;99.90;;;;;;5058987;28;20271;-79
2022/10/05 00:45:41;;;;;;;13.80;12.80;;;8.80;99.90;;;;;;5055742;28;20278;-79
2022/10/05 00:48:18;;;;;;;13.53;12.63;;;8.80;99.90;;;;;;5060408;28;20277;-80
2022/10/05 00:51:11;;;;;;;13.60;12.60;;;8.80;99.90;;;;;;5060848;28;20226;-79
2022/10/05 00:53:44;;;;;;;13.97;12.93;;;8.80;99.90;;;;;;5056066;28;20549;-79
2022/10/05 00:56:27;;;;;;;13.10;12.20;;;8.80;99.90;;;;;;5063132;28;20266;-80
2022/10/05 00:59:04;;;;;;;13.43;12.53;;;8.70;99.90;;;;;;5063769;28;20249;-80
2022/10/05 01:01:39;;;;;;;13.47;12.57;;;8.70;99.90;;;;;;5056466;28;20233;-80
2022/10/05 01:04:16;;;;;;;13.60;12.60;;;8.60;99.90;;;;;;5063550;28;20214;-80
2022/10/05 01:06:54;;;;;;;13.60;12.70;;;8.60;99.90;;;;;;5074183;28;20212;-80
2022/10/05 01:09:32;;;;;;;13.43;12.53;;;8.50;99.90;;;;;;5069332;28;20194;-78
2022/10/05 01:12:04;;;;;;;13.80;12.80;;;8.40;99.90;;;;;;5075475;28;20240;-80
2022/10/05 01:14:40;;;;;;;13.00;12.20;;;8.30;99.90;;;;;;5060721;28;20572;-79
2022/10/05 01:17:15;;;;;;;13.43;12.47;;;8.30;99.90;;;;;;5073727;28;20209;-80
2022/10/05 01:20:06;;;;;;;13.83;12.83;;;8.20;99.90;;;;;;5064282;28;20213;-79
2022/10/05 01:22:52;;;;;;;13.77;12.70;;;8.20;99.90;;;;;;5057432;28;20669;-80
2022/10/05 01:25:26;;;;;;;13.93;12.93;;;8.20;99.90;;;;;;5062035;28;20206;-79
2022/10/05 01:28:02;;;;;;;14.30;13.40;;;8.20;99.90;;;;;;5068509;28;20201;-79
2022/10/05 01:30:36;;;;;;;15.03;14.03;;;8.10;99.90;;;;;;5057896;28;20221;-79
2022/10/05 01:33:11;;;;;;;14.63;13.57;;;8.10;99.90;;;;;;5062857;28;20266;-79
2022/10/05 01:35:50;;;;;;;14.13;13.17;;;8.10;99.90;;;;;;5064818;28;20202;-79
2022/10/05 01:38:28;;;;;;;14.73;13.77;;;8.00;99.90;;;;;;5065268;28;20197;-79
2022/10/05 01:41:04;;;;;;;15.00;13.93;;;8.00;99.90;;;;;;5063901;28;20227;-79
2022/10/05 01:43:42;;;;;;;13.93;13.03;;;7.90;99.90;;;;;;5055762;28;20217;-79
2022/10/05 01:46:18;;;;;;;14.10;13.00;;;7.80;99.90;;;;;;5063039;28;20662;-79
2022/10/05 01:48:59;;;;;;;14.23;13.23;;;7.70;99.90;;;;;;5064709;28;20632;-79
2022/10/05 01:51:37;;;;;;;14.23;13.33;;;7.70;99.90;;;;;;5064228;28;20221;-79
2022/10/05 01:54:18;;;;;;;14.60;13.57;;;7.60;99.90;;;;;;5064826;28;20228;-79
2022/10/05 01:56:53;;;;;;;14.30;13.40;;;7.60;99.90;;;;;;5061812;28;20229;-80
2022/10/05 01:59:33;;;;;;;14.60;13.60;;;7.60;99.90;;;;;;5058017;28;20297;-79
2022/10/05 02:02:06;;;;;;;14.60;13.60;;;7.60;99.90;;;;;;5056847;28;20207;-79
2022/10/05 02:04:37;;;;;;;14.83;13.83;;;7.60;99.90;;;;;;5056023;28;20686;-79
2022/10/05 02:07:10;;;;;;;14.73;13.60;;;7.60;99.90;;;;;;5060076;28;20282;-79
2022/10/05 02:09:42;;;;;;;15.50;14.20;;;7.60;99.90;;;;;;5064278;28;20193;-80
2022/10/05 02:12:15;;;;;;;15.00;14.00;;;7.60;99.90;;;;;;5063508;28;20732;-80
2022/10/05 02:14:47;;;;;;;13.90;13.00;;;7.50;99.90;;;;;;5054941;28;20606;-79
2022/10/05 02:17:17;;;;;;;14.13;13.23;;;7.50;99.90;;;;;;5061166;28;20201;-79
2022/10/05 02:19:48;;;;;;;15.17;13.90;;;7.50;99.90;;;;;;5060464;28;20245;-80
2022/10/05 02:22:21;;;;;;;14.93;13.93;;;7.50;99.90;;;;;;5067167;28;20209;-79
2022/10/05 02:24:51;;;;;;;15.43;14.17;;;7.50;99.90;;;;;;5062296;28;20605;-79
2022/10/05 02:27:24;;;;;;;15.10;14.00;;;7.50;99.90;;;;;;5058325;28;20676;-80
2022/10/05 02:30:00;;;;;;;15.70;14.70;;;7.50;99.90;;;;;;5060508;28;20215;-79
2022/10/05 02:32:34;;;;;;;14.80;13.70;;;7.50;99.90;;;;;;5051864;28;20213;-80
2022/10/05 02:35:07;;;;;;;15.10;14.10;;;7.40;99.90;;;;;;5059256;28;20323;-80
2022/10/05 02:37:43;;;;;;;14.97;13.87;;;7.40;99.90;;;;;;5053188;28;20610;-79
2022/10/05 02:40:19;;;;;;;14.97;13.97;;;7.40;99.90;;;;;;5057531;28;20225;-79
2022/10/05 02:42:56;;;;;;;14.17;13.17;;;7.40;99.90;;;;;;5059450;28;20199;-79
2022/10/05 02:45:37;;;;;;;15.17;14.13;;;7.30;99.90;;;;;;5061495;28;20631;-80
2022/10/05 02:48:11;;;;;;;15.20;14.10;;;7.30;99.90;;;;;;5059967;28;20204;-79
2022/10/05 02:50:48;;;;;;;15.47;14.40;;;7.30;99.90;;;;;;5053214;28;20221;-81
2022/10/05 02:53:46;;;;;;;14.90;13.90;;;7.20;99.90;;;;;;5051269;28;20216;-80
2022/10/05 02:56:23;;;;;;;14.93;13.93;;;7.20;99.90;;;;;;5054085;28;20203;-82
2022/10/05 02:59:00;;;;;;;13.80;13.00;;;7.10;99.90;;;;;;5044576;28;20206;-81
2022/10/05 03:01:35;;;;;;;15.07;14.07;;;7.10;99.90;;;;;;5051267;28;20500;-81
2022/10/05 03:04:14;;;;;;;14.90;13.73;;;7.10;99.90;;;;;;5053494;28;20300;-81
2022/10/05 03:06:47;;;;;;;15.10;14.00;;;7.00;99.90;;;;;;5052732;28;20215;-79
2022/10/05 03:09:20;;;;;;;15.17;14.27;;;6.90;99.90;;;;;;5054149;28;20214;-81
2022/10/05 03:12:04;;;;;;;14.33;13.33;;;7.00;99.90;;;;;;5054000;28;20259;-81
2022/10/05 03:14:42;;;;;;;15.73;14.43;;;7.00;99.90;;;;;;5048639;28;20189;-81
2022/10/05 03:17:15;;;;;;;14.60;13.70;;;7.00;99.90;;;;;;5061481;28;20220;-81
2022/10/05 03:20:00;;;;;;;15.50;14.40;;;7.00;99.90;;;;;;5057619;28;20756;-81
2022/10/05 03:22:39;;;;;;;14.80;13.80;;;7.10;99.90;;;;;;5056999;28;20207;-80
2022/10/05 03:25:41;;;;;;;15.57;14.37;;;7.00;99.90;;;;;;5065565;28;20761;-80
2022/10/05 03:28:15;;;;;;;16.13;14.97;;;7.10;99.90;;;;;;5061460;28;20195;-80
2022/10/05 03:30:49;;;;;;;15.47;14.47;;;7.10;99.90;;;;;;5059535;28;20265;-80
2022/10/05 03:33:27;;;;;;;16.00;15.00;;;7.10;99.90;;;;;;5057400;28;20586;-80
2022/10/05 03:36:03;;;;;;;15.80;14.70;;;7.10;99.90;;;;;;5064877;28;20286;-80
2022/10/05 03:38:37;;;;;;;16.07;15.07;;;7.10;99.90;;;;;;5052971;28;20209;-80
2022/10/05 03:41:11;;;;;;;16.00;14.90;;;7.00;99.90;;;;;;5058922;28;20225;-80
2022/10/05 03:44:09;;;;;;;15.60;14.60;;;6.90;99.90;;;;;;5061687;28;20676;-80
2022/10/05 03:46:49;;;;;;;16.13;14.93;;;6.90;99.90;;;;;;5061022;28;20197;-80
2022/10/05 03:49:28;;;;;;;16.50;15.30;;;6.80;99.90;;;;;;5061460;28;20238;-80
2022/10/05 03:52:01;;;;;;;17.10;15.80;;;6.80;99.90;;;;;;5061374;28;20683;-80
2022/10/05 03:54:34;;;;;;;16.67;15.57;;;6.70;99.90;;;;;;5054928;28;20649;-81
2022/10/05 03:57:07;;;;;;;16.23;15.00;;;6.70;99.90;;;;;;5063835;28;20721;-81
2022/10/05 03:59:48;;;;;;;17.00;15.90;;;6.70;99.90;;;;;;5056551;28;20197;-78
2022/10/05 04:02:22;;;;;;;16.40;15.30;;;6.70;99.90;;;;;;5062987;28;20214;-80
2022/10/05 04:04:54;;;;;;;17.37;16.07;;;6.80;99.90;;;;;;5061498;28;20239;-79
2022/10/05 04:07:32;;;;;;;17.73;16.53;;;6.80;99.90;;;;;;5063140;28;20649;-80
2022/10/05 04:10:00;;;;;;;17.43;16.13;;;6.90;99.90;;;;;;5065561;28;20311;-80
2022/10/05 04:12:33;;;;;;;17.20;16.00;;;6.90;99.90;;;;;;5065572;28;20203;-80
2022/10/05 04:15:06;;;;;;;16.87;15.77;;;7.00;99.90;;;;;;5059993;28;20196;-80
2022/10/05 04:17:37;;;;;;;18.23;17.00;;;7.00;99.90;;;;;;5051275;28;20214;-80
2022/10/05 04:20:14;;;;;;;18.30;17.10;;;7.00;99.90;;;;;;5059312;28;20327;-80
2022/10/05 04:22:48;;;;;;;17.40;16.30;;;7.10;99.90;;;;;;5064233;28;20724;-80
2022/10/05 04:25:18;;;;;;;17.63;16.40;;;7.10;99.90;;;;;;5063385;28;20216;-79
2022/10/05 04:27:51;;;;;;;18.13;16.77;;;7.10;99.90;;;;;;5063543;28;20258;-80
2022/10/05 04:30:21;;;;;;;17.93;16.73;;;7.10;99.90;;;;;;5058683;28;20228;-80
2022/10/05 04:32:53;;;;;;;17.93;16.73;;;7.10;99.90;;;;;;5055735;28;20203;-80
2022/10/05 04:36:10;;;;;;;17.53;16.33;;;7.10;99.90;;;;;;5062284;28;20287;-79
2022/10/05 04:38:56;;;;;;;18.23;17.00;;;7.10;99.90;;;;;;5010453;28;20201;-81
2022/10/05 04:41:44;;;;;;;18.70;17.40;;;7.10;99.90;;;;;;5063104;28;20222;-77
2022/10/05 04:44:33;;;;;;;17.93;16.60;;;7.10;99.90;;;;;;5059619;28;20219;-79
2022/10/05 04:47:14;;;;;;;17.83;16.73;;;7.10;99.90;;;;;;5053740;28;20651;-79
2022/10/05 04:50:03;;;;;;;17.87;16.67;;;7.00;99.90;;;;;;5054216;28;20216;-80
2022/10/05 04:52:40;;;;;;;17.50;16.30;;;7.00;99.90;;;;;;5060781;28;20275;-79
2022/10/05 04:55:21;;;;;;;18.03;16.73;;;7.00;99.90;;;;;;5060446;28;20350;-79
2022/10/05 04:57:56;;;;;;;17.53;16.43;;;7.00;99.90;;;;;;5061550;28;20248;-79
2022/10/05 05:00:24;;;;;;;17.53;16.33;;;6.90;99.90;;;;;;5063837;28;20223;-80
2022/10/05 05:03:31;;;;;;;18.50;17.20;;;6.80;99.90;;;;;;5060831;28;20200;-80
2022/10/05 05:06:09;;;;;;;18.13;16.83;;;6.70;99.90;;;;;;5046501;28;20244;-80
2022/10/05 05:08:49;;;;;;;17.90;16.67;;;6.70;99.90;;;;;;5056587;28;20211;-80
2022/10/05 05:11:28;;;;;;;17.37;16.27;;;6.70;99.90;;;;;;5061391;28;20273;-80
2022/10/05 05:14:25;;;;;;;17.13;16.03;;;6.60;99.90;;;;;;5066728;28;20210;-79
2022/10/05 05:17:02;;;;;;;17.30;16.20;;;6.60;99.90;;;;;;5058505;28;20589;-80
2022/10/05 05:19:43;;;;;;;17.50;16.40;;;6.50;99.90;;;;;;5073059;28;20199;-80
2022/10/05 05:22:24;;;;;;;17.37;16.33;;;6.50;99.90;;;;;;5054746;28;20192;-80
2022/10/05 05:25:16;;;;;;;17.93;16.77;;;6.50;99.90;;;;;;5054578;28;20229;-78
2022/10/05 05:27:48;;;;;;;18.70;17.50;;;6.40;99.90;;;;;;5056130;28;20198;-80
2022/10/05 05:30:24;;;;;;;18.43;17.13;;;6.50;99.90;;;;;;5059880;28;20326;-80
2022/10/05 05:33:11;;;;;;;18.30;16.90;;;6.50;99.90;;;;;;5065705;28;20295;-80
2022/10/05 05:36:09;;;;;;;18.63;17.23;;;6.50;99.90;;;;;;5054536;28;20218;-79
2022/10/05 05:38:41;;;;;;;18.00;16.80;;;6.40;99.90;;;;;;5050099;28;20281;-79
2022/10/05 05:41:11;;;;;;;18.57;17.17;;;6.40;99.90;;;;;;5061144;28;20250;-79
2022/10/05 05:43:54;;;;;;;17.67;16.40;;;6.40;99.90;;;;;;5062453;28;20199;-79
2022/10/05 05:46:26;;;;;;;18.37;16.97;;;6.40;99.90;;;;;;5054185;28;20634;-79
2022/10/05 05:48:55;;;;;;;17.33;16.20;;;6.40;99.90;;;;;;5061643;28;20219;-79
2022/10/05 05:51:28;;;;;;;18.10;16.50;;;6.40;99.90;;;;;;5061402;28;20258;-79
2022/10/05 05:54:03;;;;;;;17.43;16.10;;;6.40;99.90;;;;;;5061074;28;20294;-79
2022/10/05 05:56:34;;;;;;;17.70;16.40;;;6.40;99.90;;;;;;5047201;28;20282;-79
2022/10/05 05:59:11;;;;;;;18.10;16.70;;;6.40;99.90;;;;;;5061971;28;20290;-79
2022/10/05 06:01:43;;;;;;;17.33;16.13;;;6.50;99.90;;;;;;5058182;28;20231;-77
2022/10/05 06:04:14;;;;;;;18.00;16.80;;;6.60;99.90;;;;;;5059532;28;20194;-84
2022/10/05 06:06:45;;;;;;;17.90;16.70;;;6.70;99.90;;;;;;5055559;28;20214;-79
2022/10/05 06:09:20;;;;;;;17.40;16.30;;;6.70;99.90;;;;;;5061760;28;20195;-80
2022/10/05 06:11:58;;;;;;;17.87;16.67;;;6.70;99.90;;;;;;5062578;28;20228;-78
2022/10/05 06:14:33;;;;;;;18.40;16.90;;;6.70;99.90;;;;;;5057514;28;20216;-80
2022/10/05 06:17:04;;;;;;;18.53;17.23;;;6.70;99.90;;;;;;5059000;28;20200;-80
2022/10/05 06:19:34;;;;;;;19.13;17.63;;;6.80;99.90;;;;;;5068383;28;20196;-79
2022/10/05 06:22:06;;;;;;;18.80;17.40;;;6.90;99.90;;;;;;5059825;28;20256;-81
2022/10/05 06:24:38;;;;;;;19.23;17.70;;;7.00;99.90;;;;;;5052176;28;20238;-79
2022/10/05 06:27:24;;;;;;;19.37;17.97;;;7.10;99.90;;;;;;5059996;28;20665;-79
2022/10/05 06:30:09;;;;;;;19.13;17.70;;;7.20;99.90;;;;;;5059838;28;20282;-80
2022/10/05 06:32:59;;;;;;;18.83;17.20;;;7.40;99.90;;;;;;5060848;28;20197;-81
2022/10/05 06:35:42;;;;;;;19.73;18.17;;;7.60;99.90;;;;;;5062444;28;20193;-80
2022/10/05 06:38:24;;;;;;;18.97;17.60;;;7.80;99.90;;;;;;5066353;28;20262;-81
2022/10/05 06:41:03;;;;;;;18.60;17.13;;;7.90;99.90;;;;;;5062266;28;20230;-81
2022/10/05 06:43:48;;;;;;;17.37;16.07;;;8.10;99.90;;;;;;5060250;28;20248;-81
2022/10/05 06:46:34;;;;;;;17.97;16.57;;;8.20;99.90;;;;;;5060665;28;20218;-80
2022/10/05 06:49:18;;;;;;;17.83;16.47;;;8.40;99.90;;;;;;5073437;28;20224;-81
2022/10/05 06:52:14;;;;;;;16.10;14.90;;;8.60;99.90;;;;;;5074437;28;20705;-81
2022/10/05 06:55:02;;;;;;;17.03;15.83;;;8.70;99.90;;;;;;5069190;28;20241;-81
2022/10/05 06:57:47;;;;;;;16.30;15.20;;;9.00;99.90;;;;;;5069415;28;20210;-81
2022/10/05 07:00:19;;;;;;;7.17;6.47;;;9.20;99.90;;;;;;5071275;28;20634;-81
2022/10/05 07:02:56;;;;;;;14.40;13.30;;;9.50;99.90;;;;;;5084380;28;20191;-80
2022/10/05 07:05:42;;;;;;;16.70;15.60;;;9.80;99.90;;;;;;5072544;28;20478;-80
2022/10/05 07:08:14;;;;;;;16.67;15.57;;;10.30;99.90;;;;;;5068288;28;20229;-81
2022/10/05 07:10:57;;;;;;;12.10;11.10;;;10.70;99.90;;;;;;5062856;28;20248;-80
2022/10/05 07:13:49;;;;;;;11.80;10.90;;;11.20;99.90;;;;;;5069828;28;20250;-81
2022/10/05 07:16:32;;;;;;;9.77;9.07;;;11.60;99.90;;;;;;5071894;28;20199;-82
2022/10/05 07:19:14;;;;;;;5.77;5.27;;;11.90;99.90;;;;;;5071672;28;20672;-82
2022/10/05 07:21:47;;;;;;;8.50;7.80;;;12.20;99.90;;;;;;5060518;28;20257;-84
2022/10/05 07:24:29;;;;;;;10.70;5.90;;;12.40;99.90;;;;;;5067976;28;20268;-81
2022/10/05 07:27:09;;;;;;;11.07;10.17;;;13.00;99.90;;;;;;5072888;28;20280;-80
2022/10/05 07:29:45;;;;;;;9.60;8.70;;;13.50;99.90;;;;;;5075870;28;20194;-81
2022/10/05 07:32:24;;;;;;;15.07;13.97;;;14.00;99.90;;;;;;5066859;28;20210;-80
2022/10/05 07:34:59;;;;;;;15.20;14.10;;;14.30;99.90;;;;;;5064680;28;20203;-80
2022/10/05 07:40:24;;;;;;;8.40;7.50;;;15.00;99.90;;;;;;5065173;28;20206;-84
2022/10/05 07:43:01;;;;;;;14.10;12.87;;;15.40;99.90;;;;;;5063381;28;20204;-81
2022/10/05 07:45:33;;;;;;;8.60;7.90;;;16.00;99.90;;;;;;5051938;28;20209;-81
2022/10/05 07:48:11;;;;;;;13.03;12.13;;;16.30;99.90;;;;;;5066219;28;20202;-81
2022/10/05 07:50:49;;;;;;;5.20;4.70;;;16.50;99.90;;;;;;5066443;28;20221;-80
2022/10/05 07:53:21;;;;;;;11.53;10.53;;;16.80;99.90;;;;;;5061557;28;20674;-81
2022/10/05 07:55:53;;;;;;;8.90;8.10;;;17.10;99.90;;;;;;5060378;28;20283;-81
2022/10/05 07:58:28;;;;;;;11.83;10.83;;;17.50;99.90;;;;;;5062838;28;20206;-81
2022/10/05 08:01:04;;;;;;;7.73;5.37;;;17.60;99.90;;;;;;5062390;28;20218;-81
2022/10/05 08:03:45;;;;;;;5.57;4.63;;;17.90;99.90;;;;;;5055262;28;20636;-81
2022/10/05 08:06:20;;;;;;;10.60;9.90;;;18.70;99.90;;;;;;5062448;28;20775;-81
2022/10/05 08:08:52;;;;;;;5.87;5.37;;;18.80;99.90;;;;;;5050777;28;20204;-81
2022/10/05 08:11:27;;;;;;;5.23;4.73;;;19.00;99.90;;;;;;5067866;28;20237;-81
2022/10/05 08:13:59;;;;;;;7.53;5.93;;;19.10;99.90;;;;;;5062660;28;20608;-82
2022/10/05 08:16:30;;;;;;;12.10;11.30;;;19.40;99.90;;;;;;5068004;28;20198;-82
2022/10/05 08:19:02;;;;;;;8.77;8.17;;;19.60;99.90;;;;;;5062652;28;20203;-82
2022/10/05 08:21:35;;;;;;;5.40;4.90;;;19.80;99.90;;;;;;5045423;28;20270;-81
2022/10/05 08:24:14;;;;;;;6.23;4.70;;;20.10;99.90;;;;;;5064120;28;20752;-81
2022/10/05 08:26:49;;;;;;;5.73;4.73;;;20.00;99.90;;;;;;5062563;28;20565;-81
2022/10/05 08:29:21;;;;;;;5.47;4.50;;;19.90;99.90;;;;;;5061788;28;20208;-83
2022/10/05 08:31:52;;;;;;;6.37;4.30;;;20.00;99.90;;;;;;5066516;28;20194;-81
2022/10/05 08:34:24;;;;;;;4.33;3.93;;;20.20;99.90;;;;;;5062483;28;20591;-82
2022/10/05 08:37:00;;;;;;;4.00;3.70;;;20.40;99.90;;;;;;5061074;28;20197;-81
2022/10/05 08:39:31;;;;;;;5.93;4.20;;;20.40;99.90;;;;;;5050132;28;20190;-81
2022/10/05 08:42:43;;;;;;;4.27;3.87;;;20.40;99.90;;;;;;5063498;28;20202;-81
2022/10/05 08:46:00;;;;;;;6.80;4.63;;;20.50;99.90;;;;;;5061442;28;20210;-82
2022/10/05 08:48:57;;;;;;;4.67;4.27;;;20.30;99.90;;;;;;5061461;28;20213;-81
2022/10/05 08:51:48;;;;;;;4.30;3.93;;;20.60;99.90;;;;;;5053466;28;20272;-81
2022/10/05 08:54:46;;;;;;;5.50;4.20;;;20.80;99.90;;;;;;5056563;28;20214;-82
2022/10/05 08:57:46;;;;;;;5.20;4.47;;;20.80;99.90;;;;;;5063231;28;20191;-81
2022/10/05 09:00:17;;;;;;;5.17;4.50;;;20.90;99.90;;;;;;5061457;28;20309;-81
2022/10/05 09:03:20;;;;;;;4.87;4.37;;;20.90;99.90;;;;;;5045264;28;20671;-82
2022/10/05 09:06:16;;;;;;;4.80;4.30;;;21.10;99.90;;;;;;5061853;28;20209;-82
2022/10/05 09:09:17;;;;;;;4.93;4.43;;;21.10;99.90;;;;;;5051172;28;20277;-83
2022/10/05 09:12:00;;;;;;;5.10;4.60;;;20.80;99.90;;;;;;5064854;28;20193;-80
2022/10/05 09:14:56;;;;;;;8.07;4.90;;;20.60;99.90;;;;;;5057727;28;20192;-82
2022/10/05 09:17:42;;;;;;;14.87;12.57;;;20.70;99.90;;;;;;5060678;28;20294;-81
2022/10/05 09:20:31;;;;;;;8.97;7.67;;;20.90;99.90;;;;;;5055175;28;20257;-81
2022/10/05 09:23:02;;;;;;;5.93;5.33;;;21.20;99.90;;;;;;5057836;28;20236;-81
2022/10/05 09:25:44;;;;;;;5.70;5.20;;;21.40;99.90;;;;;;5048734;28;20215;-82
2022/10/05 09:28:34;;;;;;;12.33;11.23;;;21.30;99.90;;;;;;5052603;28;20191;-82
2022/10/05 09:31:42;;;;;;;8.33;7.53;;;21.40;99.90;;;;;;5043448;28;20277;-82
2022/10/05 09:34:45;;;;;;;7.30;6.60;;;21.70;99.90;;;;;;5065267;28;20200;-81
2022/10/05 09:37:44;;;;;;;6.00;4.30;;;21.70;99.90;;;;;;5061668;28;20369;-82
2022/10/05 09:40:47;;;;;;;6.07;5.63;;;21.90;99.90;;;;;;5060123;28;20223;-82
2022/10/05 09:43:39;;;;;;;3.93;3.63;;;21.80;99.90;;;;;;5086831;28;20228;-82
2022/10/05 09:46:37;;;;;;;3.90;3.50;;;21.90;99.90;;;;;;5069945;28;20219;-82
2022/10/05 09:49:29;;;;;;;5.03;3.73;;;21.80;99.90;;;;;;5074865;28;20649;-82
2022/10/05 09:52:16;;;;;;;4.03;3.63;;;21.80;99.90;;;;;;5076443;28;20206;-84
2022/10/05 09:55:40;;;;;;;3.90;3.50;;;21.60;99.90;;;;;;5067840;28;20208;-84
2022/10/05 09:58:58;;;;;;;3.53;3.17;;;21.60;99.90;;;;;;4937179;28;20221;-82
2022/10/05 10:01:40;;;;;;;4.87;3.87;;;21.50;99.90;;;;;;4915943;29;20239;-83
2022/10/05 10:04:29;;;;;;;6.23;4.23;;;21.50;99.90;;;;;;4995446;28;20204;-82
2022/10/05 10:07:41;;;;;;;4.20;3.80;;;21.50;99.90;;;;;;5057502;28;20223;-81
2022/10/05 10:10:46;;;;;;;5.20;4.70;;;21.50;99.90;;;;;;5054068;28;20222;-82
2022/10/05 10:13:32;;;;;;;5.13;4.63;;;21.30;99.90;;;;;;5023724;28;20298;-82
2022/10/05 10:16:23;;;;;;;30.93;23.90;;;21.20;99.90;;;;;;5074901;28;20202;-82
2022/10/05 10:19:06;;;;;;;26.30;21.07;;;21.00;99.90;;;;;;5071412;28;20194;-82
2022/10/05 10:22:03;;;;;;;11.87;9.77;;;21.00;99.90;;;;;;5064307;28;20275;-82
2022/10/05 10:24:58;;;;;;;9.03;7.80;;;21.00;99.90;;;;;;5030711;28;20202;-82
2022/10/05 10:27:40;;;;;;;8.00;7.20;;;20.90;99.90;;;;;;5069787;28;20598;-82
2022/10/05 10:30:34;;;;;;;9.40;8.50;;;20.90;99.90;;;;;;5070849;28;20215;-82
2022/10/05 10:33:21;;;;;;;7.17;6.47;;;20.90;99.90;;;;;;5080828;28;20203;-82
2022/10/05 10:35:58;;;;;;;5.97;5.40;;;20.90;99.90;;;;;;5060032;28;20727;-83
2022/10/05 10:38:40;;;;;;;7.67;6.87;;;20.80;99.90;;;;;;5071121;28;20244;-82
2022/10/05 10:41:52;;;;;;;6.93;6.27;;;20.60;99.90;;;;;;5069112;28;20310;-84
2022/10/05 10:44:57;;;;;;;5.57;4.33;;;20.50;99.90;;;;;;5004903;28;20216;-81
2022/10/05 10:47:53;;;;;;;4.20;3.80;;;20.40;99.90;;;;;;5073524;28;20222;-84
2022/10/05 10:51:00;;;;;;;3.70;3.40;;;20.50;99.90;;;;;;5066804;28;20219;-84
2022/10/05 10:54:01;;;;;;;10.67;9.97;;;20.50;99.90;;;;;;5060042;28;20190;-83
2022/10/05 10:56:54;;;;;;;10.50;9.80;;;20.60;99.90;;;;;;5063843;28;20191;-85
2022/10/05 10:59:48;;;;;;;12.33;11.43;;;20.70;99.90;;;;;;5070312;28;20199;-82
2022/10/05 11:02:31;;;;;;;10.77;10.07;;;20.80;99.90;;;;;;5066054;28;20199;-83
2022/10/05 11:05:17;;;;;;;10.33;9.57;;;20.90;99.90;;;;;;5069125;28;20199;-83
2022/10/05 11:08:15;;;;;;;10.10;9.40;;;20.90;99.90;;;;;;5051585;28;20218;-83
2022/10/05 11:11:19;;;;;;;9.40;8.80;;;21.00;99.90;;;;;;5068390;28;20226;-83
2022/10/05 11:14:20;;;;;;;9.60;9.00;;;21.00;99.90;;;;;;5055472;28;20195;-79
2022/10/05 11:17:18;;;;;;;9.33;8.77;;;21.10;99.90;;;;;;5050883;28;20268;-82
2022/10/05 11:19:59;;;;;;;9.00;8.50;;;21.20;99.90;;;;;;5064444;28;20296;-83
2022/10/05 11:22:44;;;;;;;9.73;9.13;;;21.20;99.90;;;;;;5065035;28;20197;-82
2022/10/05 11:25:36;;;;;;;8.73;8.23;;;21.30;99.90;;;;;;5063755;28;20672;-84
2022/10/05 11:28:14;;;;;;;8.17;7.63;;;21.40;99.90;;;;;;5066083;28;20194;-83
2022/10/05 11:31:22;;;;;;;8.80;8.30;;;21.40;99.90;;;;;;5046948;28;20228;-82
2022/10/05 11:34:28;;;;;;;10.20;9.60;;;21.50;99.90;;;;;;5062548;28;20207;-84
2022/10/05 11:37:31;;;;;;;2.90;2.70;;;21.50;99.90;;;;;;5061810;28;20203;-84
2022/10/05 11:51:54;;;;;;;6.00;5.60;;;21.90;99.90;;;;;;5488361;22;20589;-83
2022/10/05 12:12:56;;;;;;;8.20;7.70;;;22.30;99.90;;;;;;5628690;23;20234;-80
2022/10/05 12:15:49;;;;;;;6.93;6.53;;;22.40;99.90;;;;;;4958187;28;20209;-80
2022/10/05 12:18:22;;;;;;;8.63;8.13;;;22.40;99.90;;;;;;4940028;29;20202;-80
2022/10/05 12:20:57;;;;;;;8.00;7.50;;;22.50;99.90;;;;;;4955076;28;20225;-81
2022/10/05 12:23:33;;;;;;;8.20;7.70;;;22.50;99.90;;;;;;4955427;28;20190;-81
2022/10/05 12:26:06;;;;;;;6.83;6.30;;;22.50;99.90;;;;;;4938135;28;20198;-81
2022/10/05 12:28:39;;;;;;;7.10;6.60;;;22.60;99.90;;;;;;4938801;29;20281;-81
2022/10/05 12:31:33;;;;;;;7.00;6.60;;;22.60;99.90;;;;;;4938259;28;20580;-81
2022/10/05 12:34:06;;;;;;;8.27;7.77;;;22.60;99.90;;;;;;4938259;29;20236;-81
2022/10/05 12:36:43;;;;;;;6.80;6.40;;;22.60;99.90;;;;;;4936822;29;20199;-82
2022/10/05 12:39:25;;;;;;;6.80;6.40;;;22.60;99.90;;;;;;4961534;28;20202;-81
2022/10/05 12:42:03;;;;;;;6.63;6.13;;;22.60;99.90;;;;;;4958660;28;20743;-81
2022/10/05 12:44:51;;;;;;;6.90;6.50;;;22.60;99.90;;;;;;4940743;29;20663;-82
2022/10/05 12:47:29;;;;;;;7.20;6.80;;;22.60;99.90;;;;;;4954167;28;20219;-81
2022/10/05 12:50:19;;;;;;;7.20;6.80;;;22.70;99.90;;;;;;4946665;28;20230;-81
2022/10/05 12:53:02;;;;;;;5.80;5.40;;;22.80;99.90;;;;;;4948809;28;20199;-81
2022/10/05 12:55:37;;;;;;;3.57;2.50;;;22.70;99.90;;;;;;4956344;28;20266;-81
2022/10/05 12:58:25;;;;;;;6.10;5.70;;;22.70;99.90;;;;;;4945919;29;20215;-81
2022/10/05 13:01:16;;;;;;;2.80;2.60;;;22.70;99.90;;;;;;4950271;28;20218;-85
2022/10/05 13:03:56;;;;;;;6.93;6.53;;;22.80;99.90;;;;;;4944904;29;20195;-81
2022/10/05 13:06:33;;;;;;;6.30;5.90;;;22.80;99.90;;;;;;4942517;29;20210;-81
2022/10/05 13:09:07;;;;;;;6.37;5.97;;;22.80;99.90;;;;;;4960131;28;20206;-81
2022/10/05 13:11:46;;;;;;;6.93;6.53;;;22.90;99.90;;;;;;4960702;28;20214;-78
2022/10/05 13:14:24;;;;;;;6.37;5.87;;;23.00;99.90;;;;;;4942839;29;20301;-81
2022/10/05 13:16:59;;;;;;;5.70;5.30;;;22.90;99.90;;;;;;4942665;29;20230;-80
2022/10/05 13:19:43;;;;;;;5.10;4.80;;;22.90;99.90;;;;;;4941702;28;20203;-80
2022/10/05 13:22:25;;;;;;;4.60;4.30;;;22.80;99.90;;;;;;4959954;28;20198;-80
2022/10/05 13:25:18;;;;;;;4.30;4.10;;;22.80;99.90;;;;;;4942337;29;20208;-80
2022/10/05 13:27:54;;;;;;;3.90;3.70;;;22.80;99.90;;;;;;4957851;28;20297;-78
2022/10/05 13:30:24;;;;;;;4.40;4.10;;;22.70;99.90;;;;;;4939906;29;20222;-80
2022/10/05 13:32:58;;;;;;;4.63;4.33;;;22.50;99.90;;;;;;4959642;28;20462;-83
2022/10/05 13:35:44;;;;;;;3.80;3.50;;;22.50;99.90;;;;;;4957208;28;20552;-78
2022/10/05 13:38:40;;;;;;;4.00;3.80;;;22.40;99.90;;;;;;4956906;28;20571;-78
2022/10/05 13:41:23;;;;;;;3.93;3.73;;;22.40;99.90;;;;;;4956033;28;20224;-75
2022/10/05 13:44:10;;;;;;;5.23;4.93;;;22.40;99.90;;;;;;4939583;29;20225;-80
2022/10/05 13:46:46;;;;;;;8.43;8.00;;;22.40;99.90;;;;;;4939641;28;20907;-82
2022/10/05 13:49:21;;;;;;;7.20;6.80;;;22.40;99.90;;;;;;4958009;28;20209;-80
2022/10/05 13:52:01;;;;;;;8.00;7.50;;;22.50;99.90;;;;;;4940797;29;20206;-79
2022/10/05 13:54:37;;;;;;;7.80;7.40;;;22.50;99.90;;;;;;4932228;29;20326;-79
2022/10/05 13:57:19;;;;;;;5.30;5.10;;;22.50;99.90;;;;;;4937319;29;20289;-78
2022/10/05 13:59:53;;;;;;;5.80;5.50;;;22.50;99.90;;;;;;4932088;29;20719;-78
2022/10/05 14:02:22;;;;;;;5.23;4.93;;;22.40;99.90;;;;;;4953378;29;20237;-79
2022/10/05 14:04:51;;;;;;;8.23;7.73;;;22.40;99.90;;;;;;4938465;29;20206;-78
2022/10/05 14:07:32;;;;;;;4.80;4.50;;;22.40;99.90;;;;;;4936936;29;20260;-77
2022/10/05 14:10:00;;;;;;;5.90;5.60;;;22.50;99.90;;;;;;4936686;29;20230;-77
2022/10/05 14:12:28;;;;;;;5.97;5.67;;;22.50;99.90;;;;;;4944826;28;20309;-78
2022/10/05 14:14:56;;;;;;;6.13;5.73;;;22.50;99.90;;;;;;4954801;28;20198;-78
2022/10/05 14:17:37;;;;;;;6.00;5.60;;;22.50;99.90;;;;;;4956635;28;20273;-80
2022/10/05 14:20:19;;;;;;;6.37;6.07;;;22.60;99.90;;;;;;4937970;29;20301;-78
2022/10/05 14:26:01;;;;;;;7.50;7.10;;;22.30;99.90;;;;;;4965971;28;20699;-83